sensor_id;sensor_type;location;lat;lon;timestamp;P1;durP1;ratioP1;P2;durP2;ratioP2
70744;SDS011;59284;31.390;34.904;2022-09-09T00:00:38;16.50;;;10.50;;
70744;SDS011;59284;31.390;34.904;2022-09-09T00:03:26;23.10;;;10.18;;
70744;SDS011;59284;31.390;34.904;2022-09-09T00:08:34;14.82;;;10.68;;
70744;SDS011;59284;31.390;34.904;2022-09-09T00:11:12;18.37;;;11.23;;
70744;SDS011;59284;31.390;34.904;2022-09-09T00:13:43;18.90;;;11.45;;
70744;SDS011;59284;31.390;34.904;2022-09-09T00:16:17;16.83;;;10.45;;
70744;SDS011;59284;31.390;34.904;2022-09-09T00:21:39;15.65;;;12.35;;
70744;SDS011;59284;31.390;34.904;2022-09-09T00:24:17;17.40;;;11.50;;
70744;SDS011;59284;31.390;34.904;2022-09-09T00:26:47;24.10;;;11.52;;
70744;SDS011;59284;31.390;34.904;2022-09-09T00:30:12;18.85;;;11.52;;
70744;SDS011;59284;31.390;34.904;2022-09-09T00:32:11;16.10;;;11.23;;
70744;SDS011;59284;31.390;34.904;2022-09-09T00:34:46;16.65;;;10.15;;
70744;SDS011;59284;31.390;34.904;2022-09-09T00:37:22;22.10;;;11.00;;
70744;SDS011;59284;31.390;34.904;2022-09-09T00:39:53;18.30;;;11.30;;
70744;SDS011;59284;31.390;34.904;2022-09-09T00:42:24;19.40;;;11.77;;
70744;SDS011;59284;31.390;34.904;2022-09-09T00:44:59;16.30;;;12.15;;
70744;SDS011;59284;31.390;34.904;2022-09-09T00:47:45;21.83;;;11.00;;
70744;SDS011;59284;31.390;34.904;2022-09-09T00:58:25;18.98;;;10.30;;
70744;SDS011;59284;31.390;34.904;2022-09-09T01:00:55;12.13;;;9.57;;
70744;SDS011;59284;31.390;34.904;2022-09-09T01:03:49;14.73;;;9.73;;
70744;SDS011;59284;31.390;34.904;2022-09-09T01:06:34;14.80;;;10.00;;
70744;SDS011;59284;31.390;34.904;2022-09-09T01:14:43;16.02;;;10.63;;
70744;SDS011;59284;31.390;34.904;2022-09-09T01:17:21;17.97;;;10.73;;
70744;SDS011;59284;31.390;34.904;2022-09-09T01:19:57;15.02;;;9.07;;
70744;SDS011;59284;31.390;34.904;2022-09-09T01:25:18;17.67;;;9.65;;
70744;SDS011;59284;31.390;34.904;2022-09-09T01:27:46;11.82;;;8.95;;
70744;SDS011;59284;31.390;34.904;2022-09-09T01:30:16;17.13;;;8.20;;
70744;SDS011;59284;31.390;34.904;2022-09-09T01:32:47;14.68;;;8.23;;
70744;SDS011;59284;31.390;34.904;2022-09-09T01:35:21;18.48;;;9.13;;
70744;SDS011;59284;31.390;34.904;2022-09-09T01:38:08;12.60;;;7.70;;
70744;SDS011;59284;31.390;34.904;2022-09-09T01:40:34;14.02;;;8.07;;
70744;SDS011;59284;31.390;34.904;2022-09-09T01:43:00;13.53;;;9.00;;
70744;SDS011;59284;31.390;34.904;2022-09-09T01:45:26;11.57;;;8.10;;
70744;SDS011;59284;31.390;34.904;2022-09-09T01:47:52;13.20;;;8.88;;
70744;SDS011;59284;31.390;34.904;2022-09-09T01:50:18;13.20;;;8.52;;
70744;SDS011;59284;31.390;34.904;2022-09-09T01:52:45;12.43;;;8.43;;
70744;SDS011;59284;31.390;34.904;2022-09-09T01:55:14;16.17;;;8.45;;
70744;SDS011;59284;31.390;34.904;2022-09-09T01:57:44;12.60;;;8.10;;
70744;SDS011;59284;31.390;34.904;2022-09-09T02:00:12;12.38;;;8.35;;
70744;SDS011;59284;31.390;34.904;2022-09-09T02:05:38;11.17;;;7.70;;
70744;SDS011;59284;31.390;34.904;2022-09-09T02:08:14;13.25;;;8.40;;
70744;SDS011;59284;31.390;34.904;2022-09-09T02:13:30;15.25;;;8.52;;
70744;SDS011;59284;31.390;34.904;2022-09-09T02:21:05;15.82;;;9.05;;
70744;SDS011;59284;31.390;34.904;2022-09-09T02:23:32;13.00;;;9.00;;
70744;SDS011;59284;31.390;34.904;2022-09-09T02:26:00;13.13;;;9.10;;
70744;SDS011;59284;31.390;34.904;2022-09-09T02:28:28;15.02;;;9.38;;
70744;SDS011;59284;31.390;34.904;2022-09-09T02:30:56;15.70;;;9.73;;
70744;SDS011;59284;31.390;34.904;2022-09-09T02:33:24;14.30;;;9.77;;
70744;SDS011;59284;31.390;34.904;2022-09-09T02:35:56;20.42;;;10.13;;
70744;SDS011;59284;31.390;34.904;2022-09-09T02:38:28;18.05;;;9.45;;
70744;SDS011;59284;31.390;34.904;2022-09-09T02:41:02;18.42;;;9.20;;
70744;SDS011;59284;31.390;34.904;2022-09-09T02:43:33;13.10;;;8.33;;
70744;SDS011;59284;31.390;34.904;2022-09-09T02:46:08;12.43;;;8.77;;
70744;SDS011;59284;31.390;34.904;2022-09-09T02:48:59;14.07;;;8.45;;
70744;SDS011;59284;31.390;34.904;2022-09-09T02:54:29;12.32;;;7.22;;
70744;SDS011;59284;31.390;34.904;2022-09-09T02:57:05;16.27;;;7.60;;
70744;SDS011;59284;31.390;34.904;2022-09-09T02:59:36;13.15;;;7.53;;
70744;SDS011;59284;31.390;34.904;2022-09-09T03:02:02;14.70;;;8.25;;
70744;SDS011;59284;31.390;34.904;2022-09-09T03:04:28;15.15;;;7.32;;
70744;SDS011;59284;31.390;34.904;2022-09-09T03:06:55;9.23;;;6.43;;
70744;SDS011;59284;31.390;34.904;2022-09-09T03:09:20;14.05;;;6.43;;
70744;SDS011;59284;31.390;34.904;2022-09-09T03:11:46;15.63;;;7.20;;
70744;SDS011;59284;31.390;34.904;2022-09-09T03:14:12;11.10;;;6.63;;
70744;SDS011;59284;31.390;34.904;2022-09-09T03:16:38;17.08;;;7.40;;
70744;SDS011;59284;31.390;34.904;2022-09-09T03:19:03;17.30;;;7.17;;
70744;SDS011;59284;31.390;34.904;2022-09-09T03:21:29;10.98;;;6.15;;
70744;SDS011;59284;31.390;34.904;2022-09-09T03:23:55;11.33;;;7.23;;
70744;SDS011;59284;31.390;34.904;2022-09-09T03:26:21;11.18;;;6.43;;
70744;SDS011;59284;31.390;34.904;2022-09-09T03:28:46;11.80;;;7.00;;
70744;SDS011;59284;31.390;34.904;2022-09-09T03:31:12;15.37;;;7.47;;
70744;SDS011;59284;31.390;34.904;2022-09-09T03:33:38;16.13;;;8.03;;
70744;SDS011;59284;31.390;34.904;2022-09-09T03:36:06;13.02;;;7.68;;
70744;SDS011;59284;31.390;34.904;2022-09-09T03:38:33;17.60;;;8.45;;
70744;SDS011;59284;31.390;34.904;2022-09-09T03:40:59;18.73;;;9.23;;
70744;SDS011;59284;31.390;34.904;2022-09-09T03:43:27;15.02;;;8.85;;
70744;SDS011;59284;31.390;34.904;2022-09-09T04:54:00;12.43;;;6.93;;
70744;SDS011;59284;31.390;34.904;2022-09-09T04:56:26;9.80;;;6.90;;
70744;SDS011;59284;31.390;34.904;2022-09-09T04:58:52;11.77;;;6.75;;
70744;SDS011;59284;31.390;34.904;2022-09-09T05:01:18;13.80;;;6.28;;
70744;SDS011;59284;31.390;34.904;2022-09-09T05:03:49;11.27;;;6.63;;
70744;SDS011;59284;31.390;34.904;2022-09-09T05:06:17;11.82;;;6.68;;
70744;SDS011;59284;31.390;34.904;2022-09-09T05:08:44;16.25;;;6.10;;
70744;SDS011;59284;31.390;34.904;2022-09-09T05:13:44;10.55;;;6.22;;
70744;SDS011;59284;31.390;34.904;2022-09-09T05:16:10;12.67;;;5.87;;
70744;SDS011;59284;31.390;34.904;2022-09-09T05:18:40;12.63;;;5.95;;
70744;SDS011;59284;31.390;34.904;2022-09-09T05:21:07;9.73;;;6.05;;
70744;SDS011;59284;31.390;34.904;2022-09-09T05:23:33;9.27;;;5.10;;
70744;SDS011;59284;31.390;34.904;2022-09-09T05:26:00;7.95;;;5.50;;
70744;SDS011;59284;31.390;34.904;2022-09-09T05:28:28;10.82;;;4.97;;
70744;SDS011;59284;31.390;34.904;2022-09-09T05:30:58;10.10;;;5.00;;
70744;SDS011;59284;31.390;34.904;2022-09-09T05:33:26;9.35;;;4.95;;
70744;SDS011;59284;31.390;34.904;2022-09-09T05:35:56;10.83;;;5.50;;
70744;SDS011;59284;31.390;34.904;2022-09-09T05:38:23;13.43;;;5.40;;
70744;SDS011;59284;31.390;34.904;2022-09-09T05:40:52;11.52;;;5.10;;
70744;SDS011;59284;31.390;34.904;2022-09-09T05:43:18;9.23;;;4.45;;
70744;SDS011;59284;31.390;34.904;2022-09-09T05:45:47;10.82;;;4.80;;
70744;SDS011;59284;31.390;34.904;2022-09-09T05:48:14;11.03;;;4.97;;
70744;SDS011;59284;31.390;34.904;2022-09-09T05:50:43;9.63;;;4.82;;
70744;SDS011;59284;31.390;34.904;2022-09-09T05:53:10;11.13;;;4.65;;
70744;SDS011;59284;31.390;34.904;2022-09-09T05:55:36;7.20;;;4.33;;
70744;SDS011;59284;31.390;34.904;2022-09-09T05:58:02;15.40;;;4.68;;
70744;SDS011;59284;31.390;34.904;2022-09-09T06:00:27;11.50;;;4.18;;
70744;SDS011;59284;31.390;34.904;2022-09-09T06:02:56;8.25;;;4.57;;
70744;SDS011;59284;31.390;34.904;2022-09-09T06:05:22;7.37;;;3.97;;
70744;SDS011;59284;31.390;34.904;2022-09-09T06:07:51;9.70;;;5.07;;
70744;SDS011;59284;31.390;34.904;2022-09-09T06:10:17;11.88;;;4.97;;
70744;SDS011;59284;31.390;34.904;2022-09-09T06:12:44;8.90;;;4.37;;
70744;SDS011;59284;31.390;34.904;2022-09-09T06:15:09;9.15;;;4.40;;
70744;SDS011;59284;31.390;34.904;2022-09-09T06:17:35;12.63;;;5.40;;
70744;SDS011;59284;31.390;34.904;2022-09-09T06:20:01;10.40;;;4.20;;
70744;SDS011;59284;31.390;34.904;2022-09-09T06:22:28;8.70;;;4.13;;
70744;SDS011;59284;31.390;34.904;2022-09-09T06:24:53;10.33;;;4.73;;
70744;SDS011;59284;31.390;34.904;2022-09-09T06:27:19;8.07;;;4.50;;
70744;SDS011;59284;31.390;34.904;2022-09-09T06:29:44;7.37;;;4.47;;
70744;SDS011;59284;31.390;34.904;2022-09-09T06:32:10;9.80;;;4.72;;
70744;SDS011;59284;31.390;34.904;2022-09-09T06:34:36;11.53;;;4.50;;
70744;SDS011;59284;31.390;34.904;2022-09-09T06:37:01;7.40;;;4.22;;
70744;SDS011;59284;31.390;34.904;2022-09-09T06:39:27;8.17;;;4.10;;
70744;SDS011;59284;31.390;34.904;2022-09-09T06:41:53;7.95;;;4.28;;
70744;SDS011;59284;31.390;34.904;2022-09-09T06:44:19;9.30;;;4.00;;
70744;SDS011;59284;31.390;34.904;2022-09-09T06:46:45;9.53;;;4.40;;
70744;SDS011;59284;31.390;34.904;2022-09-09T06:49:13;10.40;;;4.97;;
70744;SDS011;59284;31.390;34.904;2022-09-09T06:51:39;15.10;;;4.47;;
70744;SDS011;59284;31.390;34.904;2022-09-09T06:54:08;8.70;;;4.20;;
70744;SDS011;59284;31.390;34.904;2022-09-09T06:56:36;8.77;;;3.95;;
70744;SDS011;59284;31.390;34.904;2022-09-09T06:59:05;7.10;;;4.15;;
70744;SDS011;59284;31.390;34.904;2022-09-09T07:01:34;12.18;;;4.22;;
70744;SDS011;59284;31.390;34.904;2022-09-09T07:04:01;12.55;;;4.50;;
70744;SDS011;59284;31.390;34.904;2022-09-09T07:06:30;9.87;;;4.13;;
70744;SDS011;59284;31.390;34.904;2022-09-09T07:08:57;9.20;;;4.40;;
70744;SDS011;59284;31.390;34.904;2022-09-09T07:11:25;8.80;;;4.05;;
70744;SDS011;59284;31.390;34.904;2022-09-09T07:13:56;11.32;;;4.03;;
70744;SDS011;59284;31.390;34.904;2022-09-09T07:16:23;9.73;;;4.60;;
70744;SDS011;59284;31.390;34.904;2022-09-09T07:18:50;14.27;;;4.67;;
70744;SDS011;59284;31.390;34.904;2022-09-09T07:21:16;11.95;;;4.60;;
70744;SDS011;59284;31.390;34.904;2022-09-09T07:23:42;14.95;;;4.90;;
70744;SDS011;59284;31.390;34.904;2022-09-09T07:26:09;12.98;;;4.80;;
70744;SDS011;59284;31.390;34.904;2022-09-09T07:28:40;10.97;;;5.10;;
70744;SDS011;59284;31.390;34.904;2022-09-09T07:31:06;11.23;;;5.15;;
70744;SDS011;59284;31.390;34.904;2022-09-09T07:33:38;11.23;;;5.00;;
70744;SDS011;59284;31.390;34.904;2022-09-09T07:36:10;10.88;;;4.70;;
70744;SDS011;59284;31.390;34.904;2022-09-09T07:38:41;9.05;;;4.80;;
70744;SDS011;59284;31.390;34.904;2022-09-09T07:41:11;8.80;;;4.70;;
70744;SDS011;59284;31.390;34.904;2022-09-09T07:43:42;10.55;;;5.22;;
70744;SDS011;59284;31.390;34.904;2022-09-09T07:46:10;10.90;;;4.47;;
70744;SDS011;59284;31.390;34.904;2022-09-09T07:48:37;8.00;;;4.35;;
70744;SDS011;59284;31.390;34.904;2022-09-09T07:51:13;9.98;;;4.35;;
70744;SDS011;59284;31.390;34.904;2022-09-09T07:53:45;8.80;;;4.57;;
70744;SDS011;59284;31.390;34.904;2022-09-09T07:56:15;7.90;;;4.70;;
70744;SDS011;59284;31.390;34.904;2022-09-09T07:58:44;12.93;;;4.75;;
70744;SDS011;59284;31.390;34.904;2022-09-09T08:01:15;8.85;;;5.10;;
70744;SDS011;59284;31.390;34.904;2022-09-09T08:03:43;7.63;;;4.25;;
70744;SDS011;59284;31.390;34.904;2022-09-09T08:06:09;12.33;;;5.47;;
70744;SDS011;59284;31.390;34.904;2022-09-09T08:08:37;14.40;;;4.80;;
70744;SDS011;59284;31.390;34.904;2022-09-09T08:11:08;14.20;;;5.15;;
70744;SDS011;59284;31.390;34.904;2022-09-09T08:13:36;8.48;;;4.45;;
70744;SDS011;59284;31.390;34.904;2022-09-09T08:16:07;12.45;;;5.35;;
70744;SDS011;59284;31.390;34.904;2022-09-09T08:18:36;7.80;;;4.83;;
70744;SDS011;59284;31.390;34.904;2022-09-09T08:21:09;7.80;;;4.55;;
70744;SDS011;59284;31.390;34.904;2022-09-09T08:23:40;12.50;;;4.85;;
70744;SDS011;59284;31.390;34.904;2022-09-09T08:26:19;11.25;;;4.90;;
70744;SDS011;59284;31.390;34.904;2022-09-09T08:28:47;11.02;;;5.00;;
70744;SDS011;59284;31.390;34.904;2022-09-09T08:31:22;9.03;;;5.40;;
70744;SDS011;59284;31.390;34.904;2022-09-09T08:33:49;8.77;;;4.78;;
70744;SDS011;59284;31.390;34.904;2022-09-09T08:36:17;9.15;;;4.78;;
70744;SDS011;59284;31.390;34.904;2022-09-09T08:38:49;13.95;;;5.07;;
70744;SDS011;59284;31.390;34.904;2022-09-09T08:52:24;7.07;;;4.63;;
70744;SDS011;59284;31.390;34.904;2022-09-09T08:57:52;14.73;;;4.82;;
70744;SDS011;59284;31.390;34.904;2022-09-09T09:00:21;7.40;;;4.80;;
70744;SDS011;59284;31.390;34.904;2022-09-09T09:05:31;7.65;;;4.78;;
70744;SDS011;59284;31.390;34.904;2022-09-09T09:13:17;9.48;;;4.40;;
70744;SDS011;59284;31.390;34.904;2022-09-09T09:15:55;14.85;;;5.30;;
70744;SDS011;59284;31.390;34.904;2022-09-09T09:18:25;10.55;;;4.50;;
70744;SDS011;59284;31.390;34.904;2022-09-09T09:23:23;8.80;;;4.70;;
70744;SDS011;59284;31.390;34.904;2022-09-09T09:25:52;11.85;;;4.53;;
70744;SDS011;59284;31.390;34.904;2022-09-09T09:28:25;8.85;;;5.00;;
70744;SDS011;59284;31.390;34.904;2022-09-09T09:30:58;13.15;;;5.00;;
70744;SDS011;59284;31.390;34.904;2022-09-09T09:35:59;16.98;;;4.75;;
70744;SDS011;59284;31.390;34.904;2022-09-09T09:38:28;11.90;;;4.20;;
70744;SDS011;59284;31.390;34.904;2022-09-09T09:40:57;13.32;;;4.43;;
70744;SDS011;59284;31.390;34.904;2022-09-09T09:43:25;9.43;;;4.30;;
70744;SDS011;59284;31.390;34.904;2022-09-09T09:46:16;10.23;;;4.88;;
70744;SDS011;59284;31.390;34.904;2022-09-09T09:48:45;7.53;;;4.85;;
70744;SDS011;59284;31.390;34.904;2022-09-09T09:51:22;7.32;;;4.13;;
70744;SDS011;59284;31.390;34.904;2022-09-09T09:53:49;7.90;;;4.68;;
70744;SDS011;59284;31.390;34.904;2022-09-09T09:56:17;11.70;;;5.07;;
70744;SDS011;59284;31.390;34.904;2022-09-09T09:58:54;10.57;;;5.05;;
70744;SDS011;59284;31.390;34.904;2022-09-09T10:03:53;12.77;;;4.60;;
70744;SDS011;59284;31.390;34.904;2022-09-09T10:06:40;7.38;;;4.55;;
70744;SDS011;59284;31.390;34.904;2022-09-09T10:09:26;9.40;;;4.13;;
70744;SDS011;59284;31.390;34.904;2022-09-09T10:15:00;12.15;;;5.57;;
70744;SDS011;59284;31.390;34.904;2022-09-09T10:22:54;9.47;;;4.77;;
70744;SDS011;59284;31.390;34.904;2022-09-09T10:25:49;11.68;;;4.68;;
70744;SDS011;59284;31.390;34.904;2022-09-09T10:28:45;9.48;;;5.20;;
70744;SDS011;59284;31.390;34.904;2022-09-09T10:34:19;12.65;;;5.50;;
70744;SDS011;59284;31.390;34.904;2022-09-09T10:37:06;14.23;;;5.37;;
70744;SDS011;59284;31.390;34.904;2022-09-09T10:39:43;15.05;;;5.97;;
70744;SDS011;59284;31.390;34.904;2022-09-09T10:42:09;8.30;;;5.40;;
70744;SDS011;59284;31.390;34.904;2022-09-09T10:50:46;11.70;;;5.20;;
70744;SDS011;59284;31.390;34.904;2022-09-09T10:53:26;11.45;;;5.07;;
70744;SDS011;59284;31.390;34.904;2022-09-09T10:56:22;12.95;;;5.28;;
70744;SDS011;59284;31.390;34.904;2022-09-09T10:59:33;7.77;;;5.23;;
70744;SDS011;59284;31.390;34.904;2022-09-09T11:01:52;10.13;;;4.43;;
70744;SDS011;59284;31.390;34.904;2022-09-09T11:06:49;9.20;;;5.00;;
70744;SDS011;59284;31.390;34.904;2022-09-09T11:09:23;10.90;;;5.17;;
70744;SDS011;59284;31.390;34.904;2022-09-09T11:11:56;13.77;;;5.82;;
70744;SDS011;59284;31.390;34.904;2022-09-09T11:17:06;7.88;;;4.93;;
70744;SDS011;59284;31.390;34.904;2022-09-09T11:38:26;12.85;;;4.93;;
70744;SDS011;59284;31.390;34.904;2022-09-09T11:41:01;11.50;;;5.07;;
70744;SDS011;59284;31.390;34.904;2022-09-09T11:43:33;13.38;;;4.68;;
70744;SDS011;59284;31.390;34.904;2022-09-09T11:46:05;10.70;;;5.05;;
70744;SDS011;59284;31.390;34.904;2022-09-09T11:48:36;9.30;;;4.17;;
70744;SDS011;59284;31.390;34.904;2022-09-09T11:53:34;9.25;;;4.72;;
70744;SDS011;59284;31.390;34.904;2022-09-09T11:58:34;10.85;;;4.97;;
70744;SDS011;59284;31.390;34.904;2022-09-09T12:01:12;8.03;;;4.50;;
70744;SDS011;59284;31.390;34.904;2022-09-09T12:03:47;9.98;;;5.03;;
70744;SDS011;59284;31.390;34.904;2022-09-09T12:06:19;15.18;;;4.78;;
70744;SDS011;59284;31.390;34.904;2022-09-09T12:08:54;6.15;;;4.38;;
70744;SDS011;59284;31.390;34.904;2022-09-09T12:11:27;18.52;;;5.18;;
70744;SDS011;59284;31.390;34.904;2022-09-09T12:13:57;12.93;;;4.37;;
70744;SDS011;59284;31.390;34.904;2022-09-09T12:16:30;11.07;;;4.82;;
70744;SDS011;59284;31.390;34.904;2022-09-09T12:19:33;11.35;;;4.80;;
70744;SDS011;59284;31.390;34.904;2022-09-09T12:22:00;11.20;;;4.97;;
70744;SDS011;59284;31.390;34.904;2022-09-09T12:27:36;15.53;;;4.70;;
70744;SDS011;59284;31.390;34.904;2022-09-09T12:30:24;11.55;;;5.05;;
70744;SDS011;59284;31.390;34.904;2022-09-09T12:33:01;7.38;;;4.15;;
70744;SDS011;59284;31.390;34.904;2022-09-09T12:35:34;12.48;;;4.10;;
70744;SDS011;59284;31.390;34.904;2022-09-09T12:38:03;9.75;;;4.20;;
70744;SDS011;59284;31.390;34.904;2022-09-09T12:40:33;9.33;;;3.97;;
70744;SDS011;59284;31.390;34.904;2022-09-09T12:43:00;12.65;;;4.22;;
70744;SDS011;59284;31.390;34.904;2022-09-09T12:45:39;40.65;;;4.95;;
70744;SDS011;59284;31.390;34.904;2022-09-09T12:48:07;12.88;;;4.25;;
70744;SDS011;59284;31.390;34.904;2022-09-09T12:50:47;12.60;;;4.55;;
70744;SDS011;59284;31.390;34.904;2022-09-09T12:55:52;15.50;;;4.68;;
70744;SDS011;59284;31.390;34.904;2022-09-09T12:58:30;18.20;;;4.40;;
70744;SDS011;59284;31.390;34.904;2022-09-09T13:01:00;12.57;;;4.07;;
70744;SDS011;59284;31.390;34.904;2022-09-09T13:03:30;17.40;;;4.95;;
70744;SDS011;59284;31.390;34.904;2022-09-09T13:05:58;16.03;;;4.03;;
70744;SDS011;59284;31.390;34.904;2022-09-09T13:08:36;19.38;;;4.35;;
70744;SDS011;59284;31.390;34.904;2022-09-09T13:11:04;6.82;;;4.13;;
70744;SDS011;59284;31.390;34.904;2022-09-09T13:13:38;10.68;;;4.22;;
70744;SDS011;59284;31.390;34.904;2022-09-09T13:16:06;15.02;;;4.22;;
70744;SDS011;59284;31.390;34.904;2022-09-09T13:18:45;11.10;;;4.47;;
70744;SDS011;59284;31.390;34.904;2022-09-09T13:21:11;9.98;;;3.95;;
70744;SDS011;59284;31.390;34.904;2022-09-09T13:23:38;13.80;;;4.30;;
70744;SDS011;59284;31.390;34.904;2022-09-09T13:26:05;7.55;;;3.83;;
70744;SDS011;59284;31.390;34.904;2022-09-09T13:28:51;14.60;;;4.95;;
70744;SDS011;59284;31.390;34.904;2022-09-09T13:31:33;18.07;;;4.33;;
70744;SDS011;59284;31.390;34.904;2022-09-09T13:36:54;13.90;;;4.40;;
70744;SDS011;59284;31.390;34.904;2022-09-09T13:39:28;12.50;;;4.38;;
70744;SDS011;59284;31.390;34.904;2022-09-09T13:41:54;11.43;;;4.47;;
70744;SDS011;59284;31.390;34.904;2022-09-09T13:44:21;9.87;;;4.30;;
70744;SDS011;59284;31.390;34.904;2022-09-09T13:47:00;16.40;;;5.03;;
70744;SDS011;59284;31.390;34.904;2022-09-09T13:49:28;14.90;;;4.53;;
70744;SDS011;59284;31.390;34.904;2022-09-09T13:54:52;13.57;;;4.00;;
70744;SDS011;59284;31.390;34.904;2022-09-09T13:57:22;9.98;;;3.92;;
70744;SDS011;59284;31.390;34.904;2022-09-09T13:59:50;10.20;;;4.05;;
70744;SDS011;59284;31.390;34.904;2022-09-09T14:02:17;9.55;;;3.70;;
70744;SDS011;59284;31.390;34.904;2022-09-09T14:04:44;9.77;;;3.97;;
70744;SDS011;59284;31.390;34.904;2022-09-09T14:07:16;8.07;;;3.97;;
70744;SDS011;59284;31.390;34.904;2022-09-09T14:09:43;13.48;;;4.32;;
70744;SDS011;59284;31.390;34.904;2022-09-09T14:12:13;13.15;;;4.25;;
70744;SDS011;59284;31.390;34.904;2022-09-09T14:14:40;13.20;;;4.43;;
70744;SDS011;59284;31.390;34.904;2022-09-09T14:17:07;12.77;;;4.35;;
70744;SDS011;59284;31.390;34.904;2022-09-09T14:19:35;14.10;;;3.60;;
70744;SDS011;59284;31.390;34.904;2022-09-09T14:22:02;9.18;;;3.63;;
70744;SDS011;59284;31.390;34.904;2022-09-09T14:24:28;10.40;;;4.20;;
70744;SDS011;59284;31.390;34.904;2022-09-09T14:26:55;11.50;;;3.77;;
70744;SDS011;59284;31.390;34.904;2022-09-09T14:29:21;10.05;;;3.67;;
70744;SDS011;59284;31.390;34.904;2022-09-09T14:31:46;11.65;;;3.97;;
70744;SDS011;59284;31.390;34.904;2022-09-09T14:34:12;11.27;;;4.00;;
70744;SDS011;59284;31.390;34.904;2022-09-09T14:36:39;10.45;;;3.17;;
70744;SDS011;59284;31.390;34.904;2022-09-09T14:39:06;9.57;;;4.13;;
70744;SDS011;59284;31.390;34.904;2022-09-09T14:41:32;11.43;;;3.73;;
70744;SDS011;59284;31.390;34.904;2022-09-09T14:43:58;10.82;;;4.10;;
70744;SDS011;59284;31.390;34.904;2022-09-09T14:46:25;12.80;;;3.90;;
70744;SDS011;59284;31.390;34.904;2022-09-09T14:48:51;8.35;;;3.55;;
70744;SDS011;59284;31.390;34.904;2022-09-09T14:51:21;6.40;;;3.40;;
70744;SDS011;59284;31.390;34.904;2022-09-09T14:53:52;7.88;;;3.97;;
70744;SDS011;59284;31.390;34.904;2022-09-09T14:56:23;5.25;;;3.75;;
70744;SDS011;59284;31.390;34.904;2022-09-09T14:58:55;10.88;;;3.92;;
70744;SDS011;59284;31.390;34.904;2022-09-09T15:01:23;9.90;;;3.78;;
70744;SDS011;59284;31.390;34.904;2022-09-09T15:03:52;12.47;;;4.00;;
70744;SDS011;59284;31.390;34.904;2022-09-09T15:06:30;5.18;;;3.28;;
70744;SDS011;59284;31.390;34.904;2022-09-09T15:08:58;7.03;;;3.45;;
70744;SDS011;59284;31.390;34.904;2022-09-09T15:11:29;8.57;;;3.70;;
70744;SDS011;59284;31.390;34.904;2022-09-09T15:13:57;6.65;;;3.20;;
70744;SDS011;59284;31.390;34.904;2022-09-09T15:16:24;9.43;;;3.80;;
70744;SDS011;59284;31.390;34.904;2022-09-09T15:18:53;6.47;;;3.85;;
70744;SDS011;59284;31.390;34.904;2022-09-09T15:21:22;7.75;;;3.78;;
70744;SDS011;59284;31.390;34.904;2022-09-09T15:23:49;7.20;;;3.25;;
70744;SDS011;59284;31.390;34.904;2022-09-09T15:26:16;10.45;;;3.67;;
70744;SDS011;59284;31.390;34.904;2022-09-09T15:28:43;8.47;;;3.50;;
70744;SDS011;59284;31.390;34.904;2022-09-09T15:31:20;6.18;;;3.47;;
70744;SDS011;59284;31.390;34.904;2022-09-09T15:33:51;7.00;;;3.22;;
70744;SDS011;59284;31.390;34.904;2022-09-09T15:36:35;6.03;;;3.42;;
70744;SDS011;59284;31.390;34.904;2022-09-09T15:39:03;7.40;;;3.65;;
70744;SDS011;59284;31.390;34.904;2022-09-09T15:41:31;7.63;;;3.40;;
70744;SDS011;59284;31.390;34.904;2022-09-09T15:43:57;5.82;;;3.22;;
70744;SDS011;59284;31.390;34.904;2022-09-09T15:46:33;12.73;;;4.68;;
70744;SDS011;59284;31.390;34.904;2022-09-09T15:49:11;8.02;;;3.65;;
70744;SDS011;59284;31.390;34.904;2022-09-09T15:51:58;9.53;;;4.23;;
70744;SDS011;59284;31.390;34.904;2022-09-09T15:54:27;7.82;;;4.30;;
70744;SDS011;59284;31.390;34.904;2022-09-09T15:56:57;9.23;;;4.38;;
70744;SDS011;59284;31.390;34.904;2022-09-09T15:59:25;9.82;;;5.75;;
70744;SDS011;59284;31.390;34.904;2022-09-09T16:01:53;9.02;;;5.90;;
70744;SDS011;59284;31.390;34.904;2022-09-09T16:04:20;10.23;;;5.63;;
70744;SDS011;59284;31.390;34.904;2022-09-09T16:06:50;10.43;;;4.72;;
70744;SDS011;59284;31.390;34.904;2022-09-09T16:09:17;8.07;;;4.85;;
70744;SDS011;59284;31.390;34.904;2022-09-09T16:11:43;9.38;;;4.38;;
70744;SDS011;59284;31.390;34.904;2022-09-09T16:14:09;9.43;;;5.80;;
70744;SDS011;59284;31.390;34.904;2022-09-09T16:16:36;6.90;;;3.90;;
70744;SDS011;59284;31.390;34.904;2022-09-09T16:19:03;6.57;;;3.30;;
70744;SDS011;59284;31.390;34.904;2022-09-09T16:21:32;10.25;;;3.60;;
70744;SDS011;59284;31.390;34.904;2022-09-09T16:24:00;6.25;;;3.90;;
70744;SDS011;59284;31.390;34.904;2022-09-09T16:26:28;8.33;;;3.40;;
70744;SDS011;59284;31.390;34.904;2022-09-09T16:28:56;6.55;;;3.35;;
70744;SDS011;59284;31.390;34.904;2022-09-09T16:31:24;5.70;;;3.90;;
70744;SDS011;59284;31.390;34.904;2022-09-09T16:33:51;7.95;;;3.53;;
70744;SDS011;59284;31.390;34.904;2022-09-09T16:36:18;9.55;;;3.90;;
70744;SDS011;59284;31.390;34.904;2022-09-09T16:38:46;10.10;;;3.97;;
70744;SDS011;59284;31.390;34.904;2022-09-09T16:41:12;8.80;;;4.22;;
70744;SDS011;59284;31.390;34.904;2022-09-09T16:43:39;9.18;;;4.30;;
70744;SDS011;59284;31.390;34.904;2022-09-09T16:48:40;8.88;;;3.20;;
70744;SDS011;59284;31.390;34.904;2022-09-09T16:51:07;8.83;;;3.87;;
70744;SDS011;59284;31.390;34.904;2022-09-09T16:53:36;8.82;;;3.90;;
70744;SDS011;59284;31.390;34.904;2022-09-09T16:56:09;11.93;;;3.85;;
70744;SDS011;59284;31.390;34.904;2022-09-09T16:58:37;8.77;;;4.20;;
70744;SDS011;59284;31.390;34.904;2022-09-09T17:01:04;15.43;;;4.63;;
70744;SDS011;59284;31.390;34.904;2022-09-09T17:03:30;8.35;;;4.15;;
70744;SDS011;59284;31.390;34.904;2022-09-09T17:05:57;8.63;;;4.22;;
70744;SDS011;59284;31.390;34.904;2022-09-09T17:08:27;7.28;;;4.45;;
70744;SDS011;59284;31.390;34.904;2022-09-09T17:10:56;9.00;;;4.87;;
70744;SDS011;59284;31.390;34.904;2022-09-09T17:13:22;8.75;;;4.13;;
70744;SDS011;59284;31.390;34.904;2022-09-09T17:15:49;5.57;;;3.58;;
70744;SDS011;59284;31.390;34.904;2022-09-09T17:18:15;7.50;;;3.77;;
70744;SDS011;59284;31.390;34.904;2022-09-09T17:20:42;7.80;;;3.90;;
70744;SDS011;59284;31.390;34.904;2022-09-09T17:23:09;9.23;;;4.22;;
70744;SDS011;59284;31.390;34.904;2022-09-09T17:25:36;7.38;;;4.32;;
70744;SDS011;59284;31.390;34.904;2022-09-09T17:28:02;10.70;;;4.00;;
70744;SDS011;59284;31.390;34.904;2022-09-09T17:30:34;12.13;;;4.10;;
70744;SDS011;59284;31.390;34.904;2022-09-09T17:33:02;10.75;;;3.92;;
70744;SDS011;59284;31.390;34.904;2022-09-09T17:35:30;8.20;;;3.72;;
70744;SDS011;59284;31.390;34.904;2022-09-09T17:37:56;7.68;;;4.25;;
70744;SDS011;59284;31.390;34.904;2022-09-09T17:40:23;5.45;;;3.85;;
70744;SDS011;59284;31.390;34.904;2022-09-09T17:42:48;13.77;;;4.00;;
70744;SDS011;59284;31.390;34.904;2022-09-09T17:45:14;7.20;;;4.15;;
70744;SDS011;59284;31.390;34.904;2022-09-09T17:47:40;9.70;;;3.67;;
70744;SDS011;59284;31.390;34.904;2022-09-09T17:50:08;10.32;;;3.90;;
70744;SDS011;59284;31.390;34.904;2022-09-09T17:52:38;7.95;;;3.92;;
70744;SDS011;59284;31.390;34.904;2022-09-09T17:55:05;6.68;;;3.50;;
70744;SDS011;59284;31.390;34.904;2022-09-09T17:57:32;8.27;;;4.03;;
70744;SDS011;59284;31.390;34.904;2022-09-09T17:59:58;10.17;;;4.13;;